Time;durP1;ratioP1;P1;durP2;ratioP2;P2;SDS_P1;SDS_P2;PMS_P1;PMS_P2;Temp;Humidity;BMP_temperature;BMP_pressure;BME280_temperature;BME280_humidity;BME280_pressure;Samples;Min_cycle;Max_cycle;Signal;HPM_P1;HPM_P2
2021/07/27 00:01:48;;;;;;;37.43;21.07;;;21.10;78.50;;;;;;4995674;28;20242;-93
2021/07/27 00:04:13;;;;;;;37.63;23.17;;;21.00;78.90;;;;;;5004646;28;20172;-92
2021/07/27 00:06:39;;;;;;;34.67;23.47;;;21.10;79.00;;;;;;5001881;28;20191;-93
2021/07/27 00:09:05;;;;;;;30.00;18.47;;;21.00;78.70;;;;;;4995386;28;20269;-93
2021/07/27 00:11:30;;;;;;;36.70;21.87;;;21.00;78.70;;;;;;4999684;28;20237;-93
2021/07/27 00:13:56;;;;;;;35.07;21.73;;;20.80;79.20;;;;;;4995341;28;20568;-93
2021/07/27 00:16:22;;;;;;;36.23;21.90;;;20.80;79.50;;;;;;4994915;28;20183;-93
2021/07/27 00:18:48;;;;;;;37.03;22.10;;;20.80;79.80;;;;;;4995702;28;20262;-93
2021/07/27 00:21:13;;;;;;;36.50;22.77;;;20.70;80.10;;;;;;4995845;28;20302;-93
2021/07/27 00:23:39;;;;;;;35.60;21.57;;;20.70;80.10;;;;;;4995489;28;20203;-93
2021/07/27 00:26:12;;;;;;;33.07;21.13;;;20.60;80.20;;;;;;4996786;28;20641;-93
2021/07/27 00:28:38;;;;;;;33.92;21.65;;;20.60;80.40;;;;;;5012449;28;20179;-92
2021/07/27 00:31:04;;;;;;;34.63;21.90;;;20.70;80.10;;;;;;5018447;28;20253;-93
2021/07/27 00:33:30;;;;;;;35.43;22.33;;;20.60;79.90;;;;;;5017174;28;20457;-93
2021/07/27 00:35:56;;;;;;;34.33;22.00;;;20.50;80.60;;;;;;4999993;28;20179;-93
2021/07/27 00:38:22;;;;;;;33.03;20.10;;;20.60;80.60;;;;;;4995007;28;20193;-93
2021/07/27 00:40:49;;;;;;;36.13;22.13;;;20.60;80.20;;;;;;5016635;28;20243;-93
2021/07/27 00:43:17;;;;;;;35.05;21.75;;;20.60;80.20;;;;;;5009991;28;20207;-93
2021/07/27 00:45:43;;;;;;;39.60;22.75;;;20.60;80.40;;;;;;4995286;28;20519;-93
2021/07/27 00:48:09;;;;;;;36.78;21.98;;;20.50;80.50;;;;;;4996039;28;20187;-92
2021/07/27 00:50:35;;;;;;;44.85;23.40;;;20.60;80.20;;;;;;4997205;28;20198;-93
2021/07/27 00:53:03;;;;;;;35.60;23.35;;;20.70;79.70;;;;;;5008419;28;20589;-93
2021/07/27 00:55:30;;;;;;;34.75;20.13;;;20.60;79.40;;;;;;4995552;28;20179;-93
2021/07/27 00:57:56;;;;;;;35.42;21.10;;;20.60;79.50;;;;;;4994596;28;20187;-93
2021/07/27 01:00:23;;;;;;;37.40;22.23;;;20.60;79.40;;;;;;4999096;28;20190;-93
2021/07/27 01:02:49;;;;;;;39.28;22.17;;;20.60;80.10;;;;;;5012064;28;20229;-92
2021/07/27 01:05:16;;;;;;;35.90;20.45;;;20.50;79.70;;;;;;4995825;28;20183;-92
2021/07/27 01:07:42;;;;;;;40.83;22.30;;;20.40;79.70;;;;;;5014125;28;20206;-92
2021/07/27 01:10:10;;;;;;;39.20;23.13;;;20.40;79.90;;;;;;5011320;28;20555;-93
2021/07/27 01:12:37;;;;;;;36.03;22.40;;;20.40;80.20;;;;;;5015312;28;20222;-93
2021/07/27 01:15:03;;;;;;;37.45;22.63;;;20.30;80.40;;;;;;5015705;28;20202;-93
2021/07/27 01:17:29;;;;;;;34.72;21.98;;;20.10;80.70;;;;;;5007494;28;20241;-93
2021/07/27 01:39:07;;;;;;;40.67;23.73;;;19.70;82.00;;;;;;4996458;28;20587;-92
2021/07/27 01:43:59;;;;;;;33.47;21.50;;;19.70;81.90;;;;;;4996658;28;20206;-92
2021/07/27 01:46:25;;;;;;;41.38;22.85;;;19.60;81.90;;;;;;4994270;28;20512;-92
2021/07/27 01:48:51;;;;;;;37.63;21.52;;;19.50;82.10;;;;;;4994138;28;20263;-92
2021/07/27 01:51:17;;;;;;;40.30;24.77;;;19.50;82.30;;;;;;4994344;28;20211;-92
2021/07/27 01:53:47;;;;;;;39.40;21.73;;;19.70;82.30;;;;;;4993143;28;20256;-92
2021/07/27 01:56:14;;;;;;;41.38;23.67;;;19.70;82.00;;;;;;4997785;28;20191;-91
2021/07/27 01:58:40;;;;;;;48.08;23.38;;;19.70;81.60;;;;;;5016184;28;20178;-92
2021/07/27 02:01:08;;;;;;;37.17;23.50;;;19.60;81.40;;;;;;5008234;28;20246;-92
2021/07/27 02:03:34;;;;;;;44.92;24.10;;;19.60;81.70;;;;;;4994530;28;20297;-92
2021/07/27 02:05:59;;;;;;;39.33;23.10;;;19.50;81.80;;;;;;4994690;28;20681;-92
2021/07/27 02:08:25;;;;;;;38.90;22.27;;;19.40;81.90;;;;;;4994234;28;20484;-92
2021/07/27 02:10:55;;;;;;;40.07;23.00;;;19.50;81.80;;;;;;4993377;28;20215;-92
2021/07/27 02:13:27;;;;;;;42.85;22.70;;;19.50;81.70;;;;;;4993531;28;20462;-92
2021/07/27 02:15:52;;;;;;;38.60;22.02;;;19.50;81.60;;;;;;4995980;28;20175;-92
2021/07/27 02:18:18;;;;;;;47.77;24.23;;;19.60;81.20;;;;;;4993425;28;20179;-92
2021/07/27 02:20:44;;;;;;;36.30;22.00;;;19.70;80.80;;;;;;4994945;28;20175;-92
2021/07/27 02:23:10;;;;;;;37.67;23.70;;;19.60;80.40;;;;;;4993319;28;20199;-92
2021/07/27 02:25:36;;;;;;;38.60;25.13;;;19.50;80.70;;;;;;4994438;28;20490;-92
2021/07/27 02:28:03;;;;;;;44.97;24.97;;;19.30;80.90;;;;;;4996374;28;20289;-91
2021/07/27 02:30:33;;;;;;;40.10;24.27;;;19.30;81.30;;;;;;4994853;28;20202;-92
2021/07/27 02:32:59;;;;;;;38.33;23.38;;;19.20;81.40;;;;;;4996740;28;20195;-92
2021/07/27 02:35:31;;;;;;;37.73;23.30;;;19.30;81.50;;;;;;4993729;28;20274;-92
2021/07/27 02:37:56;;;;;;;40.50;24.25;;;19.30;81.50;;;;;;4996943;28;20249;-92
2021/07/27 02:40:23;;;;;;;44.72;23.05;;;19.30;82.10;;;;;;5001385;28;20218;-92
2021/07/27 02:42:49;;;;;;;44.07;23.20;;;19.30;81.30;;;;;;5001961;28;20285;-92
2021/07/27 02:45:21;;;;;;;38.33;22.20;;;19.30;81.10;;;;;;5001473;28;20213;-92
2021/07/27 02:47:47;;;;;;;40.10;22.90;;;19.30;81.20;;;;;;4996674;28;20167;-93
2021/07/27 02:50:13;;;;;;;37.40;21.90;;;19.20;81.30;;;;;;4981162;28;20636;-92
2021/07/27 02:52:44;;;;;;;43.17;24.83;;;19.10;81.40;;;;;;4998083;28;20195;-93
2021/07/27 02:55:11;;;;;;;39.58;22.50;;;19.20;81.60;;;;;;5011153;28;20215;-92
2021/07/27 02:57:37;;;;;;;39.13;23.65;;;19.10;81.60;;;;;;4998576;28;20206;-92
2021/07/27 03:00:08;;;;;;;39.13;23.15;;;19.20;81.40;;;;;;4996912;28;20194;-93
2021/07/27 03:02:38;;;;;;;43.10;23.52;;;19.20;81.30;;;;;;5005768;28;20222;-93
2021/07/27 03:05:07;;;;;;;41.20;24.00;;;19.30;81.30;;;;;;5003862;28;20187;-92
2021/07/27 03:07:58;;;;;;;41.95;23.60;;;19.20;81.10;;;;;;4996606;28;20183;-92
2021/07/27 03:10:20;;;;;;;39.45;22.00;;;19.20;81.00;;;;;;4998358;28;20215;-92
2021/07/27 03:12:48;;;;;;;36.67;22.23;;;19.20;80.70;;;;;;4996957;28;20282;-92
2021/07/27 03:15:32;;;;;;;42.13;20.85;;;19.30;80.70;;;;;;4997679;28;20267;-92
2021/07/27 03:17:59;;;;;;;37.30;22.67;;;19.30;80.30;;;;;;4997190;28;20164;-92
2021/07/27 03:20:27;;;;;;;37.88;22.33;;;19.30;80.30;;;;;;4997340;28;20658;-92
2021/07/27 03:22:54;;;;;;;37.58;23.08;;;19.30;79.90;;;;;;4999729;28;20233;-92
2021/07/27 03:25:20;;;;;;;36.53;20.95;;;19.50;79.40;;;;;;4999499;28;20194;-92
2021/07/27 03:27:49;;;;;;;42.10;22.58;;;19.50;78.90;;;;;;4998276;28;20242;-92
2021/07/27 03:30:15;;;;;;;33.90;21.42;;;19.60;78.70;;;;;;4998253;28;20710;-92
2021/07/27 03:32:41;;;;;;;44.80;23.98;;;19.50;78.80;;;;;;4998461;28;20203;-92
2021/07/27 03:35:07;;;;;;;33.80;21.92;;;19.30;79.00;;;;;;4998371;28;20214;-92
2021/07/27 03:37:34;;;;;;;32.85;20.83;;;19.30;79.30;;;;;;4998143;28;20186;-93
2021/07/27 03:40:01;;;;;;;34.13;21.52;;;19.40;79.10;;;;;;4999180;28;20217;-92
2021/07/27 03:42:27;;;;;;;37.20;21.05;;;19.40;79.10;;;;;;4997808;28;20199;-92
2021/07/27 03:44:56;;;;;;;32.80;20.40;;;19.30;79.20;;;;;;4998005;28;20218;-92
2021/07/27 03:47:22;;;;;;;45.13;21.50;;;19.50;79.50;;;;;;5000099;28;20504;-92
2021/07/27 03:49:48;;;;;;;33.58;20.55;;;19.60;78.00;;;;;;5000550;28;20202;-92
2021/07/27 03:52:14;;;;;;;42.33;20.03;;;19.60;77.90;;;;;;5012022;28;20625;-92
2021/07/27 03:54:40;;;;;;;36.50;20.37;;;19.40;78.00;;;;;;5000700;28;20670;-92
2021/07/27 03:57:06;;;;;;;39.30;21.77;;;19.20;78.70;;;;;;5001265;28;20462;-91
2021/07/27 03:59:32;;;;;;;38.00;20.87;;;19.00;79.40;;;;;;5000203;28;20493;-91
2021/07/27 04:01:58;;;;;;;39.10;20.63;;;19.10;79.80;;;;;;5001142;28;20225;-92
2021/07/27 04:04:24;;;;;;;33.97;19.70;;;19.30;79.00;;;;;;5000411;28;20190;-92
2021/07/27 04:06:49;;;;;;;38.03;20.93;;;19.20;79.00;;;;;;5000111;28;20179;-92
2021/07/27 04:09:15;;;;;;;34.07;19.80;;;19.30;79.10;;;;;;5016093;28;20599;-91
2021/07/27 04:11:41;;;;;;;34.30;21.10;;;19.40;78.90;;;;;;5016140;28;20214;-92
2021/07/27 04:14:09;;;;;;;33.30;20.45;;;19.20;78.70;;;;;;5001876;28;20481;-91
2021/07/27 04:16:39;;;;;;;36.60;22.45;;;19.10;79.30;;;;;;4999688;28;20685;-92
2021/07/27 04:19:06;;;;;;;35.70;20.88;;;19.20;79.40;;;;;;4999435;28;20221;-92
2021/07/27 04:21:32;;;;;;;34.70;22.23;;;19.20;79.30;;;;;;5001313;28;20277;-92
2021/07/27 04:23:59;;;;;;;36.63;19.40;;;19.30;79.30;;;;;;4999994;28;20185;-92
2021/07/27 04:26:27;;;;;;;35.85;21.42;;;19.40;78.80;;;;;;5000012;28;20183;-93
2021/07/27 04:28:52;;;;;;;46.28;21.02;;;19.40;78.40;;;;;;5000286;28;20186;-92
2021/07/27 04:31:18;;;;;;;27.30;19.33;;;19.30;78.50;;;;;;4998871;28;20215;-92
2021/07/27 04:33:44;;;;;;;31.05;19.00;;;19.30;78.50;;;;;;4998906;28;20257;-92
2021/07/27 04:36:10;;;;;;;45.63;22.30;;;19.40;78.60;;;;;;4999291;28;20599;-92
2021/07/27 04:38:36;;;;;;;33.63;18.47;;;19.40;78.40;;;;;;4998992;28;20418;-92
2021/07/27 04:41:06;;;;;;;36.67;20.50;;;19.50;78.30;;;;;;4999987;28;20674;-92
2021/07/27 04:43:33;;;;;;;30.52;19.20;;;19.60;78.20;;;;;;4998169;28;20211;-92
2021/07/27 04:45:59;;;;;;;35.45;19.85;;;19.60;78.00;;;;;;4998076;28;20198;-92
2021/07/27 04:48:24;;;;;;;28.40;18.48;;;19.70;77.80;;;;;;5009617;28;20180;-92
2021/07/27 04:50:50;;;;;;;31.50;19.17;;;19.80;77.80;;;;;;5000036;28;20305;-92
2021/07/27 04:53:21;;;;;;;33.67;18.40;;;19.90;76.80;;;;;;5001050;28;20230;-92
2021/07/27 04:55:48;;;;;;;29.92;17.40;;;20.10;76.10;;;;;;5002594;28;20175;-93
2021/07/27 04:58:14;;;;;;;28.50;19.00;;;20.10;75.90;;;;;;5000804;28;20179;-92
2021/07/27 05:00:39;;;;;;;31.40;18.50;;;20.10;75.70;;;;;;5003612;28;20184;-92
2021/07/27 05:03:05;;;;;;;29.53;18.60;;;20.00;76.00;;;;;;5001183;28;20289;-93
2021/07/27 05:05:31;;;;;;;33.50;18.30;;;20.00;76.30;;;;;;5002592;28;20643;-92
2021/07/27 05:07:59;;;;;;;28.65;18.30;;;20.10;76.30;;;;;;5003167;28;20630;-92
2021/07/27 05:10:24;;;;;;;31.27;18.50;;;20.10;76.20;;;;;;5001868;28;20207;-91
2021/07/27 05:12:50;;;;;;;35.30;19.97;;;20.20;76.10;;;;;;5004097;28;20257;-93
2021/07/27 05:15:16;;;;;;;33.03;19.83;;;20.40;75.90;;;;;;5016130;28;20175;-93
2021/07/27 05:17:43;;;;;;;27.50;18.33;;;20.40;75.40;;;;;;5000369;28;20526;-92
2021/07/27 05:20:09;;;;;;;40.33;20.15;;;20.50;75.70;;;;;;4999548;28;20532;-93
2021/07/27 05:22:35;;;;;;;33.90;18.63;;;20.60;75.60;;;;;;5008566;28;20198;-93
2021/07/27 05:25:17;;;;;;;23.73;17.03;;;20.60;75.50;;;;;;5013120;28;20187;-93
2021/07/27 05:27:43;;;;;;;28.90;18.13;;;20.80;75.20;;;;;;5015473;28;20403;-93
2021/07/27 05:30:10;;;;;;;26.37;17.97;;;20.80;74.70;;;;;;5011764;28;20208;-92
2021/07/27 05:32:36;;;;;;;29.05;18.48;;;21.00;74.30;;;;;;4983549;28;20294;-93
2021/07/27 05:35:01;;;;;;;26.93;18.10;;;21.10;74.00;;;;;;4975217;28;20211;-93
2021/07/27 05:37:27;;;;;;;30.77;18.53;;;21.30;73.50;;;;;;4974945;28;20172;-93
2021/07/27 05:39:53;;;;;;;28.73;17.80;;;21.20;73.30;;;;;;4992269;28;20592;-93
2021/07/27 05:42:19;;;;;;;25.40;17.33;;;21.20;74.10;;;;;;4994264;28;20199;-93
2021/07/27 05:44:44;;;;;;;23.67;17.07;;;21.30;73.30;;;;;;5003120;28;20269;-93
2021/07/27 05:47:10;;;;;;;27.27;19.63;;;21.30;72.80;;;;;;4993750;28;20186;-93
2021/07/27 05:49:37;;;;;;;28.30;18.07;;;21.10;73.10;;;;;;4994613;28;20190;-93
2021/07/27 05:52:04;;;;;;;27.70;18.13;;;21.30;73.30;;;;;;4993806;28;20215;-93
2021/07/27 05:54:30;;;;;;;29.10;18.83;;;21.10;74.20;;;;;;4995172;28;20433;-93
2021/07/27 05:56:55;;;;;;;32.07;18.87;;;21.10;74.00;;;;;;4994859;28;20418;-93
2021/07/27 05:59:21;;;;;;;33.83;17.57;;;21.10;74.20;;;;;;4994027;28;20183;-93
2021/07/27 06:01:48;;;;;;;29.43;16.97;;;21.10;74.40;;;;;;5004232;28;20195;-93
2021/07/27 06:04:14;;;;;;;26.80;15.90;;;21.10;74.70;;;;;;5017010;28;20457;-93
2021/07/27 06:06:40;;;;;;;29.47;16.67;;;21.40;74.50;;;;;;5017110;28;20444;-92
2021/07/27 06:09:08;;;;;;;28.50;16.80;;;21.50;74.20;;;;;;5014682;28;20465;-92
2021/07/27 06:11:34;;;;;;;25.40;16.93;;;21.70;73.80;;;;;;5012745;28;20533;-93
2021/07/27 06:14:01;;;;;;;21.87;15.80;;;21.70;73.10;;;;;;5013892;28;20431;-92
2021/07/27 06:16:27;;;;;;;22.10;15.27;;;21.70;73.10;;;;;;5014313;28;20421;-93
2021/07/27 06:18:53;;;;;;;36.20;17.87;;;21.80;72.70;;;;;;5013742;28;20418;-93
2021/07/27 06:21:19;;;;;;;28.47;15.57;;;21.90;72.80;;;;;;5010375;28;20447;-93
2021/07/27 06:23:46;;;;;;;22.80;15.27;;;22.00;72.50;;;;;;4998412;28;20427;-93
2021/07/27 06:26:11;;;;;;;30.70;14.63;;;22.20;72.10;;;;;;5005407;28;20422;-93
2021/07/27 06:28:37;;;;;;;20.77;14.50;;;22.20;71.60;;;;;;5002886;28;20772;-94
2021/07/27 06:31:10;;;;;;;18.80;13.97;;;22.20;71.70;;;;;;4996609;28;20199;-93
2021/07/27 06:33:40;;;;;;;23.33;14.70;;;22.10;71.50;;;;;;4997078;28;20521;-94
2021/07/27 06:36:06;;;;;;;23.27;14.37;;;22.20;71.60;;;;;;5002696;28;20422;-93
2021/07/27 06:38:32;;;;;;;23.20;14.60;;;22.30;71.50;;;;;;5013500;28;20440;-93
2021/07/27 06:40:58;;;;;;;22.13;14.90;;;22.20;70.90;;;;;;5011167;28;20442;-93
2021/07/27 06:43:23;;;;;;;21.73;14.97;;;22.10;71.80;;;;;;4995013;28;20577;-93
2021/07/27 06:45:53;;;;;;;22.40;15.63;;;22.10;71.40;;;;;;4995850;28;20537;-92
2021/07/27 06:48:19;;;;;;;23.90;15.50;;;21.90;71.90;;;;;;4993533;28;20194;-93
2021/07/27 06:50:45;;;;;;;24.87;16.07;;;21.90;72.60;;;;;;4993287;28;20465;-93
2021/07/27 06:53:11;;;;;;;27.80;16.57;;;22.00;72.60;;;;;;4996059;28;20434;-93
2021/07/27 06:55:37;;;;;;;22.07;14.50;;;22.10;72.50;;;;;;4993478;28;20199;-92
2021/07/27 06:58:02;;;;;;;23.07;15.30;;;22.30;72.30;;;;;;4993924;28;20233;-92
2021/07/27 07:00:28;;;;;;;22.27;15.27;;;22.50;70.90;;;;;;4993424;28;20186;-93
2021/07/27 07:02:54;;;;;;;24.50;14.10;;;22.80;70.40;;;;;;4993544;28;20461;-93
2021/07/27 07:05:19;;;;;;;18.83;12.40;;;23.00;69.20;;;;;;4994004;28;20293;-93
2021/07/27 07:07:45;;;;;;;23.07;13.57;;;23.40;68.30;;;;;;4993461;28;20230;-93
2021/07/27 07:10:11;;;;;;;17.53;12.80;;;23.60;67.60;;;;;;4993852;28;20222;-93
2021/07/27 07:12:37;;;;;;;16.40;12.73;;;23.90;67.00;;;;;;4993942;28;20215;-93
2021/07/27 07:15:03;;;;;;;22.97;11.80;;;24.10;66.40;;;;;;4992942;28;20422;-93
2021/07/27 07:17:30;;;;;;;16.90;12.07;;;24.60;64.50;;;;;;4993380;28;20187;-93
2021/07/27 07:19:55;;;;;;;21.27;12.47;;;24.90;63.20;;;;;;4993353;28;20423;-93
2021/07/27 07:22:21;;;;;;;19.77;11.67;;;25.20;62.30;;;;;;4993721;28;20443;-93
2021/07/27 07:24:47;;;;;;;21.43;12.17;;;25.40;60.90;;;;;;5001454;28;20190;-94
2021/07/27 07:27:13;;;;;;;15.40;11.50;;;25.60;60.50;;;;;;5002457;28;20215;-93
2021/07/27 07:29:40;;;;;;;13.60;11.60;;;25.70;59.40;;;;;;4994855;28;20454;-93
2021/07/27 07:32:06;;;;;;;15.90;12.63;;;25.80;59.90;;;;;;4992377;28;20470;-93
2021/07/27 07:34:32;;;;;;;26.27;11.97;;;25.60;59.50;;;;;;4994433;28;20418;-93
2021/07/27 07:36:59;;;;;;;23.87;12.87;;;25.50;59.20;;;;;;5005447;28;20485;-93
2021/07/27 07:39:25;;;;;;;22.83;13.33;;;25.50;60.00;;;;;;5004289;28;20422;-93
2021/07/27 07:41:50;;;;;;;19.43;12.50;;;25.40;60.30;;;;;;4997514;28;20481;-93
2021/07/27 07:44:16;;;;;;;19.30;14.37;;;25.20;60.70;;;;;;4995923;28;20430;-93
2021/07/27 07:46:42;;;;;;;19.73;14.57;;;25.30;60.40;;;;;;4996123;28;20237;-93
2021/07/27 07:49:07;;;;;;;21.80;13.73;;;25.10;61.40;;;;;;4997688;28;20185;-93
2021/07/27 07:51:35;;;;;;;15.70;13.23;;;24.80;61.70;;;;;;4995486;28;20574;-93
2021/07/27 07:54:01;;;;;;;19.50;14.10;;;24.60;61.70;;;;;;4995798;28;20649;-93
2021/07/27 07:56:27;;;;;;;18.63;14.40;;;24.60;62.30;;;;;;4995911;28;20426;-93
2021/07/27 07:58:53;;;;;;;23.73;13.47;;;24.60;62.50;;;;;;4996076;28;20444;-93
2021/07/27 08:01:19;;;;;;;23.33;15.13;;;24.50;63.10;;;;;;4997666;28;20878;-93
2021/07/27 08:03:44;;;;;;;18.20;15.47;;;24.50;63.00;;;;;;4996599;28;20210;-93
2021/07/27 08:06:10;;;;;;;17.93;12.80;;;24.60;62.80;;;;;;4997892;28;20431;-93
2021/07/27 08:08:38;;;;;;;19.80;12.97;;;25.10;62.40;;;;;;4999636;28;20187;-93
2021/07/27 08:11:04;;;;;;;20.80;13.17;;;25.60;59.90;;;;;;4996075;28;20691;-93
2021/07/27 08:13:30;;;;;;;18.60;13.57;;;25.80;58.80;;;;;;4998869;28;20454;-93
2021/07/27 08:15:56;;;;;;;22.47;13.13;;;25.80;58.20;;;;;;4996204;28;20425;-93
2021/07/27 08:18:22;;;;;;;18.77;12.90;;;26.00;58.40;;;;;;4996586;28;20546;-93
2021/07/27 08:20:48;;;;;;;20.53;13.53;;;26.10;57.60;;;;;;4995813;28;20540;-93
2021/07/27 08:23:14;;;;;;;19.97;13.67;;;26.10;57.30;;;;;;4997461;28;20626;-93
2021/07/27 08:25:40;;;;;;;17.37;13.10;;;25.80;57.20;;;;;;4999703;28;20521;-92
2021/07/27 08:28:05;;;;;;;16.70;13.10;;;25.50;57.50;;;;;;4997112;28;20309;-93
2021/07/27 08:30:31;;;;;;;17.07;12.20;;;25.50;58.60;;;;;;5006112;28;20206;-92
2021/07/27 08:32:57;;;;;;;28.53;14.17;;;25.10;59.00;;;;;;5008398;28;20203;-92
2021/07/27 08:35:23;;;;;;;19.57;12.67;;;24.80;60.00;;;;;;5012589;28;20275;-92
2021/07/27 08:37:50;;;;;;;25.07;12.93;;;24.40;61.00;;;;;;5017199;28;20167;-93
2021/07/27 08:40:18;;;;;;;27.07;15.30;;;24.30;61.90;;;;;;5014934;28;20457;-92
2021/07/27 08:42:45;;;;;;;35.33;15.20;;;23.90;63.10;;;;;;5008451;28;20467;-92
2021/07/27 08:45:12;;;;;;;49.00;16.13;;;23.60;64.20;;;;;;5012236;28;20511;-93
2021/07/27 08:47:44;;;;;;;38.10;15.43;;;23.50;65.30;;;;;;5001034;28;20488;-93
2021/07/27 08:50:10;;;;;;;18.27;13.90;;;23.30;66.20;;;;;;5001865;28;20795;-93
2021/07/27 08:52:37;;;;;;;17.43;12.80;;;23.30;66.60;;;;;;4998304;28;20850;-92
2021/07/27 08:55:05;;;;;;;26.17;14.20;;;23.00;67.00;;;;;;4996398;28;20422;-93
2021/07/27 08:57:31;;;;;;;76.13;17.67;;;22.80;67.90;;;;;;4995922;28;20418;-93
2021/07/27 08:59:57;;;;;;;27.30;14.93;;;22.60;68.60;;;;;;4995475;28;20420;-92
2021/07/27 09:02:30;;;;;;;21.93;13.70;;;22.60;69.20;;;;;;4994864;28;20199;-93
2021/07/27 09:05:13;;;;;;;23.67;13.50;;;22.50;69.60;;;;;;4994719;28;20218;-93
2021/07/27 09:07:39;;;;;;;21.10;14.10;;;22.50;70.00;;;;;;4994712;28;20513;-93
2021/07/27 09:10:12;;;;;;;18.83;12.97;;;22.50;69.80;;;;;;4996353;28;20482;-93
2021/07/27 09:12:38;;;;;;;15.50;12.60;;;22.50;69.90;;;;;;4994668;28;20462;-90
2021/07/27 09:15:07;;;;;;;19.00;12.67;;;22.40;70.50;;;;;;4995263;28;20422;-92
2021/07/27 09:17:33;;;;;;;32.57;13.80;;;22.30;71.00;;;;;;4994625;28;20458;-93
2021/07/27 09:19:59;;;;;;;30.07;13.50;;;22.40;71.40;;;;;;4994142;28;20797;-93
2021/07/27 09:22:24;;;;;;;17.07;13.03;;;22.60;71.60;;;;;;4995291;28;20615;-92
2021/07/27 09:24:50;;;;;;;40.97;14.37;;;23.10;70.70;;;;;;4994928;28;20253;-93
2021/07/27 09:27:59;;;;;;;15.27;11.93;;;23.10;69.70;;;;;;4994935;28;20218;-93
2021/07/27 09:30:25;;;;;;;16.90;11.70;;;23.50;68.90;;;;;;5001060;28;20238;-93
2021/07/27 09:32:51;;;;;;;13.47;11.57;;;23.70;67.60;;;;;;4997456;28;20929;-93
2021/07/27 09:35:22;;;;;;;22.90;11.33;;;23.90;66.00;;;;;;4996323;28;20175;-93
2021/07/27 09:38:06;;;;;;;20.20;11.97;;;24.00;65.20;;;;;;5010878;28;20278;-93
2021/07/27 09:40:34;;;;;;;12.40;10.20;;;24.00;65.00;;;;;;4995771;28;20438;-93
2021/07/27 09:43:01;;;;;;;18.73;11.80;;;24.00;63.70;;;;;;4995453;28;20438;-93
2021/07/27 09:45:28;;;;;;;12.87;10.70;;;24.10;63.60;;;;;;4995680;28;20494;-93
2021/07/27 09:47:56;;;;;;;18.33;10.93;;;24.10;64.00;;;;;;4998191;28;20418;-93
2021/07/27 09:50:25;;;;;;;11.87;10.60;;;24.30;64.10;;;;;;4994207;28;20909;-93
2021/07/27 09:52:52;;;;;;;13.10;9.30;;;24.50;63.50;;;;;;4995136;28;20973;-92
2021/07/27 09:55:22;;;;;;;14.23;9.50;;;24.90;62.60;;;;;;4993765;28;20925;-93
2021/07/27 09:57:49;;;;;;;11.50;9.97;;;25.30;60.10;;;;;;4993251;28;20433;-93
2021/07/27 10:00:16;;;;;;;15.47;11.30;;;25.40;59.30;;;;;;4997068;28;20423;-93
2021/07/27 10:02:45;;;;;;;18.73;10.27;;;25.60;58.10;;;;;;4993240;28;20525;-93
2021/07/27 10:05:12;;;;;;;13.80;9.53;;;25.60;57.50;;;;;;4996186;28;20918;-93
2021/07/27 10:07:38;;;;;;;10.10;9.10;;;25.60;56.80;;;;;;4993469;28;20413;-93
2021/07/27 10:10:09;;;;;;;10.33;9.23;;;25.80;57.00;;;;;;4994800;28;20414;-93
2021/07/27 10:12:36;;;;;;;10.23;9.17;;;25.60;56.90;;;;;;4977146;28;20502;-93
2021/07/27 10:15:16;;;;;;;12.30;11.00;;;25.40;57.10;;;;;;4993143;28;20976;-93
2021/07/27 10:17:52;;;;;;;11.80;8.90;;;25.40;57.60;;;;;;4993675;28;20421;-93
2021/07/27 10:20:22;;;;;;;13.17;9.87;;;25.60;57.20;;;;;;4993620;28;20922;-93
2021/07/27 10:22:48;;;;;;;13.60;10.50;;;25.90;56.40;;;;;;4993119;28;20448;-93
2021/07/27 10:25:16;;;;;;;14.33;10.40;;;26.20;55.80;;;;;;4993641;28;20511;-93
2021/07/27 10:27:50;;;;;;;12.17;10.20;;;26.20;56.00;;;;;;5006644;28;20167;-93
2021/07/27 10:30:16;;;;;;;15.97;10.10;;;26.10;56.00;;;;;;4994875;28;20461;-93
2021/07/27 10:32:54;;;;;;;12.27;9.50;;;26.20;56.10;;;;;;4994398;28;20458;-94
2021/07/27 10:35:27;;;;;;;9.60;8.60;;;26.40;55.50;;;;;;4993166;28;20965;-93
2021/07/27 10:37:53;;;;;;;11.60;10.40;;;26.80;54.20;;;;;;4993422;28;20421;-93
2021/07/27 10:40:29;;;;;;;14.20;10.20;;;26.90;54.00;;;;;;4992911;28;20414;-93
2021/07/27 10:42:55;;;;;;;10.80;9.43;;;26.90;53.20;;;;;;5008210;28;20459;-92
2021/07/27 10:45:22;;;;;;;12.37;9.60;;;26.70;52.60;;;;;;4994189;28;20857;-93
2021/07/27 10:47:52;;;;;;;197.10;26.17;;;26.60;53.30;;;;;;4992929;28;20764;-93
2021/07/27 10:50:23;;;;;;;36.07;10.50;;;26.80;53.70;;;;;;4994506;28;20414;-93
2021/07/27 10:52:57;;;;;;;17.10;10.93;;;27.10;53.20;;;;;;4992636;28;20916;-93
2021/07/27 10:55:27;;;;;;;27.07;12.00;;;27.10;53.30;;;;;;4993939;28;20430;-93
2021/07/27 10:57:55;;;;;;;10.60;9.47;;;27.20;52.70;;;;;;4992751;28;20418;-94
2021/07/27 11:00:33;;;;;;;67.13;13.90;;;26.80;51.60;;;;;;4993110;28;20452;-94
2021/07/27 11:03:00;;;;;;;37.00;11.00;;;26.50;52.50;;;;;;5003816;28;20823;-93
2021/07/27 11:05:30;;;;;;;85.83;18.20;;;26.80;52.90;;;;;;4997562;28;20429;-93
2021/07/27 11:07:56;;;;;;;104.33;18.90;;;27.00;53.60;;;;;;4994973;28;20944;-93
2021/07/27 11:10:23;;;;;;;17.57;9.97;;;27.20;52.80;;;;;;4996964;28;20564;-93
2021/07/27 11:12:50;;;;;;;13.00;10.30;;;27.40;51.70;;;;;;4998131;28;20465;-93
2021/07/27 11:15:21;;;;;;;12.30;9.73;;;27.40;51.00;;;;;;4997743;28;20449;-93
2021/07/27 11:17:58;;;;;;;12.60;9.43;;;27.40;51.30;;;;;;4996802;28;21011;-93
2021/07/27 11:20:35;;;;;;;23.67;10.30;;;27.30;51.20;;;;;;4998098;28;20943;-93
2021/07/27 11:23:18;;;;;;;35.30;11.73;;;27.40;51.40;;;;;;4997147;28;20589;-93
2021/07/27 11:25:57;;;;;;;18.50;10.20;;;27.30;51.40;;;;;;4998384;28;20414;-93
2021/07/27 11:28:35;;;;;;;12.27;11.07;;;27.40;51.70;;;;;;4998668;28;20418;-93
2021/07/27 11:31:02;;;;;;;12.73;10.07;;;27.40;51.00;;;;;;4996659;28;20512;-93
2021/07/27 11:33:28;;;;;;;24.73;10.53;;;27.10;50.90;;;;;;4997568;28;20461;-93
2021/07/27 11:35:55;;;;;;;13.63;9.70;;;27.40;51.70;;;;;;4996668;28;20453;-93
2021/07/27 11:38:22;;;;;;;11.20;9.37;;;27.70;51.90;;;;;;4996630;28;20761;-93
2021/07/27 11:41:02;;;;;;;12.20;8.70;;;27.60;50.40;;;;;;4997740;28;20517;-93
2021/07/27 11:43:32;;;;;;;12.23;10.50;;;27.00;50.50;;;;;;4995929;28;20548;-94
2021/07/27 11:46:05;;;;;;;16.70;9.97;;;27.20;51.50;;;;;;4998652;28;20419;-93
2021/07/27 11:48:35;;;;;;;13.13;9.13;;;27.30;51.10;;;;;;5008157;28;20427;-93
2021/07/27 11:51:01;;;;;;;12.20;9.30;;;27.10;50.80;;;;;;5000017;28;20529;-93
2021/07/27 11:53:31;;;;;;;17.70;10.03;;;26.50;50.90;;;;;;4998083;28;20475;-93
2021/07/27 11:55:57;;;;;;;14.20;8.83;;;26.60;52.10;;;;;;4996595;28;20430;-93
2021/07/27 11:58:28;;;;;;;23.43;10.60;;;26.90;51.70;;;;;;4996320;28;20421;-93
2021/07/27 12:00:58;;;;;;;13.23;9.10;;;26.90;51.30;;;;;;4997302;28;20517;-93
2021/07/27 12:03:25;;;;;;;13.60;9.43;;;27.00;51.70;;;;;;4996378;28;20442;-93
2021/07/27 12:05:55;;;;;;;15.97;10.50;;;27.00;52.10;;;;;;4998828;28;20436;-93
2021/07/27 12:08:21;;;;;;;14.23;10.20;;;26.80;50.90;;;;;;4996261;28;20788;-93
2021/07/27 12:10:47;;;;;;;13.90;10.00;;;26.80;50.40;;;;;;4998110;28;20591;-93
2021/07/27 12:13:13;;;;;;;12.43;9.00;;;26.70;50.70;;;;;;5001071;28;20309;-93
2021/07/27 12:15:39;;;;;;;11.00;9.70;;;26.80;51.30;;;;;;5003315;28;20583;-93
2021/07/27 12:18:04;;;;;;;12.87;10.30;;;26.10;51.80;;;;;;4999758;28;20425;-93
2021/07/27 12:20:30;;;;;;;14.07;11.23;;;26.40;52.70;;;;;;5000751;28;20179;-93
2021/07/27 12:22:56;;;;;;;19.20;10.77;;;26.20;52.80;;;;;;4997988;28;20199;-92
2021/07/27 12:25:22;;;;;;;15.03;11.53;;;26.60;52.70;;;;;;4996288;28;20549;-93
2021/07/27 12:27:47;;;;;;;11.83;10.40;;;26.20;52.60;;;;;;4996482;28;20647;-93
2021/07/27 12:30:14;;;;;;;15.80;11.37;;;26.40;53.70;;;;;;4996007;28;20184;-93
2021/07/27 12:32:39;;;;;;;14.33;11.60;;;26.60;53.20;;;;;;4997985;28;20213;-93
2021/07/27 12:35:06;;;;;;;16.33;10.87;;;26.90;52.40;;;;;;4997452;28;20423;-93
2021/07/27 12:37:35;;;;;;;13.57;10.20;;;26.80;51.10;;;;;;4997061;28;20426;-94
2021/07/27 12:40:02;;;;;;;14.70;11.13;;;26.50;52.20;;;;;;4997383;28;20417;-93
2021/07/27 12:42:28;;;;;;;11.00;9.13;;;26.80;52.60;;;;;;4994976;28;20438;-93
2021/07/27 12:44:54;;;;;;;13.53;11.10;;;27.00;52.60;;;;;;4995723;28;20442;-93
2021/07/27 12:47:20;;;;;;;13.23;10.50;;;27.40;52.00;;;;;;4995378;28;20587;-93
2021/07/27 12:49:46;;;;;;;12.87;10.87;;;27.70;51.50;;;;;;4995838;28;20241;-93
2021/07/27 12:52:14;;;;;;;15.47;11.20;;;27.80;50.40;;;;;;4997034;28;20508;-93